Time;durP1;ratioP1;P1;durP2;ratioP2;P2;SDS_P1;SDS_P2;PMS_P1;PMS_P2;Temp;Humidity;BMP_temperature;BMP_pressure;BME280_temperature;BME280_humidity;BME280_pressure;Samples;Min_cycle;Max_cycle;Signal;HPM_P1;HPM_P2
2023/05/11 00:02:14;;;;;;;3.08;2.78;;;14.80;99.90;;;;;;5064544;28;20048;-76
2023/05/11 00:04:40;;;;;;;3.90;2.78;;;14.80;99.90;;;;;;5055834;28;20028;-77
2023/05/11 00:07:06;;;;;;;2.45;2.25;;;14.90;99.90;;;;;;5089791;28;20032;-76
2023/05/11 00:09:33;;;;;;;3.15;2.33;;;14.90;99.90;;;;;;5093750;28;20020;-76
2023/05/11 00:12:00;;;;;;;2.80;2.60;;;15.00;99.90;;;;;;5064078;28;20029;-76
2023/05/11 00:14:26;;;;;;;4.38;2.63;;;15.00;99.90;;;;;;5071985;28;20401;-76
2023/05/11 00:16:52;;;;;;;2.60;2.40;;;15.00;99.90;;;;;;5085674;28;20041;-76
2023/05/11 00:19:18;;;;;;;3.85;2.90;;;15.00;99.90;;;;;;5076487;28;20043;-76
2023/05/11 00:21:44;;;;;;;3.60;2.40;;;15.00;99.90;;;;;;5092712;28;20044;-76
2023/05/11 00:24:10;;;;;;;2.80;2.60;;;15.10;99.90;;;;;;5075440;28;20028;-77
2023/05/11 00:26:37;;;;;;;2.60;2.40;;;15.10;99.90;;;;;;5065602;28;20033;-76
2023/05/11 00:29:03;;;;;;;2.85;2.60;;;15.00;99.90;;;;;;5088055;28;20392;-77
2023/05/11 00:31:29;;;;;;;3.45;2.72;;;15.10;99.90;;;;;;5074556;28;20036;-77
2023/05/11 00:33:55;;;;;;;3.58;3.28;;;15.10;99.90;;;;;;5092312;28;20090;-76
2023/05/11 00:36:21;;;;;;;3.03;2.80;;;15.10;99.90;;;;;;5092898;28;20047;-77
2023/05/11 00:38:48;;;;;;;3.92;3.05;;;15.10;99.90;;;;;;5075134;28;20020;-76
2023/05/11 00:41:14;;;;;;;3.28;3.00;;;15.10;99.90;;;;;;5037303;28;20040;-76
2023/05/11 00:43:41;;;;;;;3.22;2.85;;;15.10;99.90;;;;;;5054824;28;20028;-76
2023/05/11 00:46:07;;;;;;;3.00;2.80;;;15.10;99.90;;;;;;5092023;28;20036;-77
2023/05/11 00:48:33;;;;;;;3.20;2.90;;;15.10;99.90;;;;;;5040729;28;20040;-76
2023/05/11 00:50:59;;;;;;;3.10;2.78;;;15.10;99.90;;;;;;5085306;28;20461;-77
2023/05/11 00:53:25;;;;;;;4.38;2.60;;;15.10;99.90;;;;;;5074683;28;20027;-77
2023/05/11 00:55:52;;;;;;;4.28;3.10;;;15.10;99.90;;;;;;5073724;28;20036;-77
2023/05/11 00:58:18;;;;;;;3.38;3.00;;;15.00;99.90;;;;;;5092270;28;20044;-76
2023/05/11 01:00:46;;;;;;;2.88;2.70;;;14.90;99.90;;;;;;5055581;28;20043;-77
2023/05/11 01:03:13;;;;;;;3.25;2.92;;;14.90;99.90;;;;;;5087164;28;20044;-76
2023/05/11 01:06:15;;;;;;;5.47;3.15;;;14.80;99.90;;;;;;5074451;28;20036;-77
2023/05/11 01:08:52;;;;;;;4.63;3.15;;;14.70;99.90;;;;;;5008856;28;20053;-77
2023/05/11 01:11:47;;;;;;;3.13;2.83;;;14.70;99.90;;;;;;4995542;28;20485;-77
2023/05/11 01:14:20;;;;;;;4.18;3.10;;;14.70;99.90;;;;;;4951552;29;20035;-77
2023/05/11 01:16:48;;;;;;;3.70;3.20;;;14.70;99.90;;;;;;4951322;28;20043;-77
2023/05/11 01:19:43;;;;;;;3.45;3.20;;;14.70;99.90;;;;;;4936202;29;20039;-78
2023/05/11 01:22:55;;;;;;;3.80;3.50;;;14.70;99.90;;;;;;4938273;29;20496;-77
2023/05/11 01:25:39;;;;;;;5.07;3.40;;;14.80;99.90;;;;;;4945332;29;20051;-77
2023/05/11 01:28:42;;;;;;;3.92;3.60;;;14.80;99.90;;;;;;4933706;29;20162;-78
2023/05/11 01:31:12;;;;;;;5.95;3.55;;;14.80;99.90;;;;;;4898809;29;20059;-77
2023/05/11 01:33:42;;;;;;;5.60;3.65;;;14.80;99.90;;;;;;4881455;29;20048;-77
2023/05/11 01:36:09;;;;;;;4.25;3.85;;;14.80;99.90;;;;;;4882539;29;20521;-77
2023/05/11 01:38:39;;;;;;;4.13;3.83;;;14.80;99.90;;;;;;4898010;29;20028;-77
2023/05/11 01:41:12;;;;;;;4.00;3.72;;;14.80;99.90;;;;;;4901862;29;20063;-77
2023/05/11 01:43:38;;;;;;;3.97;3.67;;;14.80;99.90;;;;;;4897602;29;20601;-77
2023/05/11 01:46:05;;;;;;;4.00;3.72;;;14.80;99.90;;;;;;4919449;29;20036;-77
2023/05/11 01:48:34;;;;;;;4.35;4.00;;;14.90;99.90;;;;;;4932300;29;20039;-77
2023/05/11 01:51:01;;;;;;;4.00;3.65;;;14.90;99.90;;;;;;4970414;28;20359;-77
2023/05/11 01:53:28;;;;;;;5.40;3.67;;;14.90;99.90;;;;;;4977625;28;20065;-77
2023/05/11 01:55:55;;;;;;;3.92;3.60;;;14.90;99.90;;;;;;4976982;28;20510;-77
2023/05/11 01:58:21;;;;;;;4.30;3.90;;;14.80;99.90;;;;;;4991936;28;20402;-78
2023/05/11 02:00:47;;;;;;;7.90;3.80;;;14.80;99.90;;;;;;4990243;28;20034;-77
2023/05/11 02:03:13;;;;;;;5.18;3.50;;;14.70;99.90;;;;;;4973048;28;20053;-76
2023/05/11 02:05:39;;;;;;;3.90;3.60;;;14.70;99.90;;;;;;4987456;28;20861;-78
2023/05/11 02:08:05;;;;;;;5.55;3.65;;;14.70;99.90;;;;;;5019840;28;20052;-77
2023/05/11 02:10:32;;;;;;;4.65;3.50;;;14.70;99.90;;;;;;5070206;28;20032;-77
2023/05/11 02:12:58;;;;;;;3.97;3.67;;;14.80;99.90;;;;;;5082960;28;20489;-77
2023/05/11 02:15:24;;;;;;;5.45;3.88;;;14.70;99.90;;;;;;5071078;28;20036;-77
2023/05/11 02:17:51;;;;;;;5.32;3.90;;;14.70;99.90;;;;;;5072589;28;20032;-76
2023/05/11 02:20:17;;;;;;;3.95;3.65;;;14.70;99.90;;;;;;5072511;28;20036;-77
2023/05/11 02:22:43;;;;;;;4.95;3.40;;;14.70;99.90;;;;;;5054624;28;20392;-77
2023/05/11 02:25:09;;;;;;;3.90;3.70;;;14.70;99.90;;;;;;5052011;28;20029;-77
2023/05/11 02:27:35;;;;;;;5.20;3.80;;;14.70;99.90;;;;;;5052451;28;20052;-77
2023/05/11 02:30:03;;;;;;;4.00;3.70;;;14.70;99.90;;;;;;5069116;28;20394;-76
2023/05/11 02:32:29;;;;;;;3.90;3.60;;;14.60;99.90;;;;;;5070605;28;20504;-77
2023/05/11 02:35:08;;;;;;;5.35;3.70;;;14.50;99.90;;;;;;5076194;28;20024;-77
2023/05/11 02:37:34;;;;;;;4.22;3.85;;;14.50;99.90;;;;;;5065710;28;20393;-77
2023/05/11 02:40:04;;;;;;;4.55;3.47;;;14.50;99.90;;;;;;5072718;28;20039;-77
2023/05/11 02:42:30;;;;;;;4.22;3.75;;;14.50;99.90;;;;;;5073477;28;20477;-76
2023/05/11 02:45:07;;;;;;;4.15;3.85;;;14.50;99.90;;;;;;5076117;28;20020;-78
2023/05/11 02:47:51;;;;;;;3.80;3.60;;;14.40;99.90;;;;;;5093071;28;20036;-77
2023/05/11 02:50:17;;;;;;;3.90;3.60;;;14.40;99.90;;;;;;5078212;28;20046;-77
2023/05/11 02:52:45;;;;;;;4.32;4.00;;;14.40;99.90;;;;;;5043313;28;20036;-77
2023/05/11 02:55:11;;;;;;;3.78;3.58;;;14.40;99.90;;;;;;5075611;28;20035;-77
2023/05/11 02:57:37;;;;;;;4.13;3.72;;;14.40;99.90;;;;;;5060349;28;20028;-77
2023/05/11 03:00:04;;;;;;;6.18;3.85;;;14.40;99.90;;;;;;5070811;28;20056;-77
2023/05/11 03:02:30;;;;;;;4.05;3.75;;;14.40;99.90;;;;;;5088926;28;20040;-76
2023/05/11 03:04:56;;;;;;;3.90;3.65;;;14.40;99.90;;;;;;5073567;28;20025;-77
2023/05/11 03:07:23;;;;;;;3.95;3.63;;;14.40;99.90;;;;;;5073554;28;20024;-77
2023/05/11 03:09:49;;;;;;;4.40;3.65;;;14.40;99.90;;;;;;5089910;28;20481;-77
2023/05/11 03:12:15;;;;;;;3.88;3.67;;;14.40;99.90;;;;;;5073120;28;20025;-76
2023/05/11 03:14:41;;;;;;;5.00;3.88;;;14.40;99.90;;;;;;5056656;28;20024;-77
2023/05/11 03:17:07;;;;;;;3.95;3.53;;;14.40;99.90;;;;;;5071482;28;20375;-77
2023/05/11 03:19:34;;;;;;;3.83;3.45;;;14.40;99.90;;;;;;5073209;28;20043;-77
2023/05/11 03:22:00;;;;;;;5.03;4.05;;;14.40;99.90;;;;;;5066480;28;20033;-77
2023/05/11 03:24:26;;;;;;;4.03;3.72;;;14.40;99.90;;;;;;5052923;28;20036;-77
2023/05/11 03:26:55;;;;;;;3.88;3.67;;;14.40;99.90;;;;;;5050082;28;20028;-77
2023/05/11 03:29:21;;;;;;;4.15;3.78;;;14.40;99.90;;;;;;5073226;28;20025;-76
2023/05/11 03:31:47;;;;;;;3.83;3.42;;;14.30;99.90;;;;;;5071562;28;20064;-76
2023/05/11 03:34:13;;;;;;;4.25;3.50;;;14.30;99.90;;;;;;5075375;28;20029;-77
2023/05/11 03:36:40;;;;;;;3.80;3.50;;;14.30;99.90;;;;;;5054921;28;20404;-77
2023/05/11 03:39:06;;;;;;;4.22;3.83;;;14.30;99.90;;;;;;5053009;28;20052;-77
2023/05/11 03:41:32;;;;;;;4.05;3.75;;;14.30;99.90;;;;;;5064111;28;20029;-77
2023/05/11 03:43:58;;;;;;;3.95;3.65;;;14.30;99.90;;;;;;5072810;28;20385;-77
2023/05/11 03:46:25;;;;;;;5.05;3.50;;;14.30;99.90;;;;;;5065237;28;20047;-77
2023/05/11 03:48:51;;;;;;;4.10;3.80;;;14.30;99.90;;;;;;5072835;28;20358;-77
2023/05/11 03:51:17;;;;;;;4.28;3.83;;;14.40;99.90;;;;;;5072296;28;20413;-77
2023/05/11 03:53:43;;;;;;;4.20;3.70;;;14.40;99.90;;;;;;5061260;28;20040;-78
2023/05/11 03:56:10;;;;;;;5.50;3.90;;;14.40;99.90;;;;;;5058969;28;20678;-76
2023/05/11 03:58:39;;;;;;;5.78;3.63;;;14.40;99.90;;;;;;5072411;28;20409;-76
2023/05/11 04:01:08;;;;;;;7.95;3.63;;;14.40;99.90;;;;;;5070281;28;20032;-77
2023/05/11 04:03:42;;;;;;;4.00;3.53;;;14.40;99.90;;;;;;5054742;28;20049;-77
2023/05/11 04:06:09;;;;;;;4.70;4.25;;;14.40;99.90;;;;;;5071903;28;20389;-76
2023/05/11 04:08:35;;;;;;;3.85;3.55;;;14.40;99.90;;;;;;5072200;28;20040;-76
2023/05/11 04:11:01;;;;;;;4.57;3.60;;;14.30;99.90;;;;;;5073253;28;20032;-77
2023/05/11 04:13:27;;;;;;;4.43;3.95;;;14.30;99.90;;;;;;5072206;28;20039;-76
2023/05/11 04:15:54;;;;;;;4.68;4.07;;;14.30;99.90;;;;;;5053054;28;20033;-76
2023/05/11 04:18:20;;;;;;;4.68;3.50;;;14.30;99.90;;;;;;5088126;28;20043;-76
2023/05/11 04:20:46;;;;;;;4.28;3.88;;;14.30;99.90;;;;;;5071155;28;20401;-78
2023/05/11 04:23:12;;;;;;;5.30;3.63;;;14.30;99.90;;;;;;5071687;28;20047;-75
2023/05/11 04:25:38;;;;;;;3.67;3.33;;;14.30;99.90;;;;;;5085626;28;20382;-77
2023/05/11 04:28:04;;;;;;;3.95;3.55;;;14.30;99.90;;;;;;5066446;28;20031;-76
2023/05/11 04:30:30;;;;;;;3.70;3.40;;;14.30;99.90;;;;;;5069590;28;20050;-76
2023/05/11 04:32:56;;;;;;;5.22;3.63;;;14.30;99.90;;;;;;5071609;28;20032;-76
2023/05/11 04:35:23;;;;;;;3.60;3.30;;;14.30;99.90;;;;;;5070086;28;20473;-76
2023/05/11 04:37:49;;;;;;;4.30;3.90;;;14.30;99.90;;;;;;5065121;28;20037;-76
2023/05/11 04:40:16;;;;;;;7.03;4.15;;;14.30;99.90;;;;;;5071234;28;20822;-76
2023/05/11 04:42:42;;;;;;;4.40;4.00;;;14.30;99.90;;;;;;5069773;28;20396;-77
2023/05/11 04:45:08;;;;;;;6.35;3.90;;;14.30;99.90;;;;;;5065989;28;20039;-75
2023/05/11 04:47:34;;;;;;;5.15;3.90;;;14.20;99.90;;;;;;5070341;28;20044;-77
2023/05/11 04:50:00;;;;;;;5.43;4.05;;;14.20;99.90;;;;;;5070673;28;20036;-77
2023/05/11 04:52:26;;;;;;;5.93;3.97;;;14.20;99.90;;;;;;5071126;28;20033;-76
2023/05/11 04:54:53;;;;;;;5.15;4.10;;;14.20;99.90;;;;;;5071274;28;20484;-75
2023/05/11 04:57:19;;;;;;;4.75;3.83;;;14.30;99.90;;;;;;5069782;28;20061;-77
2023/05/11 04:59:45;;;;;;;6.70;4.18;;;14.30;99.90;;;;;;5090095;28;20075;-77
2023/05/11 05:02:11;;;;;;;3.90;3.60;;;14.30;99.90;;;;;;5091855;28;20036;-77
2023/05/11 05:04:37;;;;;;;5.32;4.05;;;14.30;99.90;;;;;;5074427;28;20038;-77
2023/05/11 05:07:03;;;;;;;4.10;3.70;;;14.20;99.90;;;;;;5074219;28;20389;-76
2023/05/11 05:09:30;;;;;;;4.28;3.60;;;14.20;99.90;;;;;;5074743;28;20032;-77
2023/05/11 05:11:56;;;;;;;5.85;3.40;;;14.20;99.90;;;;;;5056264;28;20496;-77
2023/05/11 05:14:22;;;;;;;6.93;4.10;;;14.30;99.90;;;;;;5074539;28;20027;-77
2023/05/11 05:16:48;;;;;;;4.40;4.00;;;14.30;99.90;;;;;;5073145;28;20036;-76
2023/05/11 05:19:14;;;;;;;5.15;3.83;;;14.30;99.90;;;;;;5091131;28;20028;-76
2023/05/11 05:21:40;;;;;;;7.18;4.30;;;14.30;99.90;;;;;;5073697;28;20432;-77
2023/05/11 05:24:09;;;;;;;6.68;4.40;;;14.40;99.90;;;;;;5074395;28;20032;-77
2023/05/11 05:26:36;;;;;;;7.93;4.68;;;14.40;99.90;;;;;;5073963;28;20031;-77
2023/05/11 05:29:02;;;;;;;5.07;4.43;;;14.40;99.90;;;;;;5092194;28;20046;-77
2023/05/11 05:31:28;;;;;;;4.85;4.35;;;14.40;99.90;;;;;;5091538;28;20054;-77
2023/05/11 05:33:55;;;;;;;5.68;4.38;;;14.40;99.90;;;;;;5092100;28;20485;-77
2023/05/11 05:36:21;;;;;;;4.80;4.40;;;14.40;99.90;;;;;;5092028;28;20027;-77
2023/05/11 05:38:47;;;;;;;4.75;4.25;;;14.40;99.90;;;;;;5073978;28;20041;-77
2023/05/11 05:41:13;;;;;;;7.07;4.75;;;14.50;99.90;;;;;;5079614;28;20039;-77
2023/05/11 05:43:39;;;;;;;4.68;4.20;;;14.50;99.90;;;;;;5073643;28;20044;-77
2023/05/11 05:46:05;;;;;;;4.47;4.10;;;14.50;99.90;;;;;;5091359;28;20024;-77
2023/05/11 05:48:31;;;;;;;4.53;4.10;;;14.50;99.90;;;;;;5091856;28;20094;-77
2023/05/11 05:50:59;;;;;;;5.85;4.57;;;14.60;99.90;;;;;;5091478;28;20035;-77
2023/05/11 05:53:25;;;;;;;6.60;4.25;;;14.50;99.90;;;;;;5091984;28;20032;-77
2023/05/11 05:55:51;;;;;;;4.82;4.30;;;14.60;99.90;;;;;;5091950;28;20031;-76
2023/05/11 05:58:17;;;;;;;4.97;4.15;;;14.60;99.90;;;;;;5090362;28;20032;-77
2023/05/11 06:00:43;;;;;;;4.82;4.30;;;14.60;99.90;;;;;;5091346;28;20029;-77
2023/05/11 06:03:09;;;;;;;5.00;4.50;;;14.60;99.90;;;;;;5091693;28;20044;-77
2023/05/11 06:05:35;;;;;;;6.50;4.50;;;14.60;99.90;;;;;;5091586;28;20035;-77
2023/05/11 06:08:01;;;;;;;7.78;4.57;;;14.60;99.90;;;;;;5091953;28;20031;-77
2023/05/11 06:10:28;;;;;;;6.70;4.30;;;14.60;99.90;;;;;;5091663;28;20023;-77
2023/05/11 06:12:54;;;;;;;6.85;4.63;;;14.60;99.90;;;;;;5071721;28;20032;-78
2023/05/11 06:15:20;;;;;;;5.60;4.47;;;14.60;99.90;;;;;;5089931;28;20039;-77
2023/05/11 06:17:46;;;;;;;6.55;4.57;;;14.70;99.90;;;;;;5072948;28;20035;-77
2023/05/11 06:20:13;;;;;;;7.45;4.63;;;14.70;99.90;;;;;;5076464;28;20044;-77
2023/05/11 06:22:39;;;;;;;9.18;6.32;;;14.80;99.90;;;;;;5077731;28;20028;-76
2023/05/11 06:25:05;;;;;;;8.43;6.07;;;14.80;99.90;;;;;;5077727;28;20036;-76
2023/05/11 06:27:31;;;;;;;8.02;5.38;;;14.80;99.90;;;;;;5095512;28;20032;-76
2023/05/11 06:29:57;;;;;;;8.32;5.00;;;14.80;99.90;;;;;;5095517;28;20028;-76
2023/05/11 06:32:23;;;;;;;12.40;6.60;;;14.90;99.90;;;;;;5077642;28;20045;-76
2023/05/11 06:34:50;;;;;;;9.20;7.05;;;14.90;99.90;;;;;;5067386;28;20036;-76
2023/05/11 06:37:19;;;;;;;47.78;33.65;;;15.00;99.90;;;;;;5067206;28;20036;-75
2023/05/11 06:39:46;;;;;;;55.35;38.92;;;15.00;99.90;;;;;;5092344;28;20032;-76
2023/05/11 06:42:12;;;;;;;32.47;25.95;;;15.10;99.90;;;;;;5076190;28;20028;-76
2023/05/11 06:44:40;;;;;;;19.40;14.55;;;15.10;99.90;;;;;;5085732;28;20036;-76
2023/05/11 06:47:06;;;;;;;12.85;10.00;;;15.00;99.90;;;;;;5074228;28;20058;-76
2023/05/11 06:49:32;;;;;;;14.20;8.60;;;15.00;99.90;;;;;;5060711;28;20457;-76
2023/05/11 06:51:59;;;;;;;9.07;5.70;;;15.00;99.90;;;;;;5056400;28;20020;-76
2023/05/11 06:54:25;;;;;;;7.80;5.68;;;15.00;99.90;;;;;;5076199;28;20032;-76
2023/05/11 06:56:51;;;;;;;7.22;4.85;;;15.00;99.90;;;;;;5094768;28;20036;-76
2023/05/11 06:59:17;;;;;;;10.05;5.78;;;15.00;99.90;;;;;;5093730;28;20040;-75
2023/05/11 07:01:43;;;;;;;8.48;6.32;;;15.10;99.90;;;;;;5053508;28;20080;-76
2023/05/11 07:04:09;;;;;;;24.17;17.92;;;15.10;99.90;;;;;;5051277;28;20048;-76
2023/05/11 07:06:35;;;;;;;18.45;12.55;;;15.10;99.90;;;;;;5070099;28;20032;-75
2023/05/11 07:09:02;;;;;;;36.00;23.13;;;15.10;99.90;;;;;;5060033;28;20047;-75
2023/05/11 07:11:29;;;;;;;28.27;18.15;;;15.10;99.90;;;;;;5076005;28;20119;-75
2023/05/11 07:13:55;;;;;;;18.58;10.07;;;15.20;99.90;;;;;;5076526;28;20032;-75
2023/05/11 07:16:22;;;;;;;10.90;6.13;;;15.30;99.90;;;;;;5074286;28;20043;-76
2023/05/11 07:18:48;;;;;;;5.68;5.00;;;15.10;99.90;;;;;;5062194;28;20024;-76
2023/05/11 07:21:14;;;;;;;7.53;5.03;;;15.10;99.90;;;;;;5083865;28;20039;-76
2023/05/11 07:23:41;;;;;;;11.68;4.72;;;15.10;99.90;;;;;;5074432;28;20089;-75
2023/05/11 07:26:08;;;;;;;7.80;5.07;;;15.20;99.90;;;;;;5076273;28;20031;-76
2023/05/11 07:28:37;;;;;;;8.82;4.60;;;15.30;99.90;;;;;;5081975;28;20036;-76
2023/05/11 07:31:03;;;;;;;8.88;4.57;;;15.40;99.90;;;;;;5074178;28;20031;-76
2023/05/11 07:33:29;;;;;;;9.02;4.95;;;15.50;99.90;;;;;;5075061;28;20035;-76
2023/05/11 07:35:55;;;;;;;12.25;5.50;;;15.40;99.90;;;;;;5075352;28;20404;-76
2023/05/11 07:38:21;;;;;;;9.65;5.13;;;15.40;99.90;;;;;;5086599;28;20024;-76
2023/05/11 07:40:52;;;;;;;10.07;4.90;;;15.20;99.90;;;;;;5080953;28;20031;-76
2023/05/11 07:43:26;;;;;;;7.07;4.97;;;15.10;99.90;;;;;;5083083;28;20029;-77
2023/05/11 07:45:53;;;;;;;9.32;4.70;;;15.30;99.90;;;;;;5087397;28;20036;-77
2023/05/11 07:48:19;;;;;;;6.50;5.35;;;15.40;99.90;;;;;;5076018;28;20024;-76
2023/05/11 07:50:45;;;;;;;9.07;5.00;;;15.50;99.90;;;;;;5074478;28;20035;-75
2023/05/11 07:53:11;;;;;;;12.55;5.72;;;15.60;99.90;;;;;;5093032;28;20032;-76
2023/05/11 07:55:38;;;;;;;8.55;4.68;;;15.70;99.90;;;;;;5091554;28;20028;-76
2023/05/11 07:58:04;;;;;;;9.90;5.10;;;15.90;99.90;;;;;;5093820;28;20484;-76
2023/05/11 08:00:30;;;;;;;10.63;4.70;;;16.00;99.90;;;;;;5062989;28;20032;-76
2023/05/11 08:02:56;;;;;;;9.93;5.63;;;16.10;99.90;;;;;;5074450;28;20028;-76
2023/05/11 08:05:22;;;;;;;9.68;5.32;;;16.10;99.90;;;;;;5080271;28;20040;-76
2023/05/11 08:07:48;;;;;;;9.48;4.63;;;16.20;99.90;;;;;;5064787;28;20389;-76
2023/05/11 08:10:14;;;;;;;9.77;4.97;;;16.20;99.90;;;;;;5090376;28;20043;-76
2023/05/11 08:12:40;;;;;;;9.70;4.95;;;16.30;99.90;;;;;;5074543;28;20404;-76
2023/05/11 08:15:07;;;;;;;8.30;4.78;;;16.40;99.90;;;;;;5073623;28;20032;-76
2023/05/11 08:17:33;;;;;;;9.30;5.38;;;16.40;99.90;;;;;;5090831;28;20031;-76
2023/05/11 08:20:00;;;;;;;8.05;4.70;;;16.50;99.90;;;;;;5072808;28;20032;-76
2023/05/11 08:22:26;;;;;;;8.73;5.00;;;16.50;99.90;;;;;;5091493;28;20027;-76
2023/05/11 08:24:52;;;;;;;6.40;4.40;;;16.60;99.90;;;;;;5091779;28;20048;-76
2023/05/11 08:27:18;;;;;;;12.32;4.30;;;16.60;99.90;;;;;;5093018;28;20090;-76
2023/05/11 08:29:44;;;;;;;9.38;4.28;;;16.60;99.90;;;;;;5079202;28;20044;-75
2023/05/11 08:32:10;;;;;;;8.68;6.13;;;16.60;99.90;;;;;;5079018;28;20039;-76
2023/05/11 08:34:36;;;;;;;7.35;5.32;;;16.60;99.90;;;;;;5092074;28;20032;-73
2023/05/11 08:37:03;;;;;;;11.52;5.32;;;16.50;99.90;;;;;;5077443;28;20028;-72
2023/05/11 08:39:29;;;;;;;14.10;5.53;;;16.50;99.90;;;;;;5055335;28;20488;-72
2023/05/11 08:41:56;;;;;;;10.15;5.07;;;16.50;99.90;;;;;;5064726;28;20033;-71
2023/05/11 08:44:23;;;;;;;8.88;4.45;;;16.50;99.90;;;;;;5054317;28;20048;-74
2023/05/11 08:46:49;;;;;;;9.68;4.65;;;16.60;99.90;;;;;;5059106;28;20035;-73
2023/05/11 08:49:15;;;;;;;10.45;4.63;;;16.60;99.90;;;;;;5071705;28;20058;-74
2023/05/11 08:51:41;;;;;;;12.00;6.07;;;16.60;99.90;;;;;;5070339;28;20032;-71
2023/05/11 08:54:07;;;;;;;9.57;5.03;;;16.60;99.90;;;;;;5082099;28;20364;-74
2023/05/11 08:56:33;;;;;;;8.02;4.65;;;16.60;99.90;;;;;;5085491;28;20032;-74
2023/05/11 08:58:59;;;;;;;7.28;4.97;;;16.40;99.90;;;;;;5073855;28;20063;-74
2023/05/11 09:01:27;;;;;;;9.80;4.22;;;16.30;99.90;;;;;;5089829;28;20036;-74
2023/05/11 09:03:53;;;;;;;9.60;4.50;;;16.00;99.90;;;;;;5071058;28;20044;-74
2023/05/11 09:06:20;;;;;;;10.20;4.47;;;15.60;99.90;;;;;;5065432;28;20388;-74
2023/05/11 09:08:46;;;;;;;9.60;4.10;;;15.40;99.90;;;;;;5072554;28;20032;-74
2023/05/11 09:11:12;;;;;;;10.77;3.90;;;15.10;99.90;;;;;;5064484;28;20028;-74
2023/05/11 09:13:38;;;;;;;7.72;4.05;;;15.10;99.90;;;;;;5060900;28;20042;-74
2023/05/11 09:16:04;;;;;;;11.10;4.43;;;15.10;99.90;;;;;;5056233;28;20388;-74
2023/05/11 09:18:30;;;;;;;10.82;4.22;;;15.10;99.90;;;;;;5072252;28;20047;-74
2023/05/11 09:20:56;;;;;;;7.78;4.45;;;15.10;99.90;;;;;;5073826;28;20040;-74
2023/05/11 09:23:26;;;;;;;12.40;4.78;;;15.20;99.90;;;;;;5058441;28;20067;-74
2023/05/11 09:25:52;;;;;;;12.93;5.05;;;15.30;99.90;;;;;;5086904;28;20020;-74
2023/05/11 09:28:23;;;;;;;11.00;4.45;;;15.40;99.90;;;;;;5074262;28;20388;-74
2023/05/11 09:30:49;;;;;;;10.80;4.75;;;15.60;99.90;;;;;;5059251;28;20040;-74
2023/05/11 09:33:23;;;;;;;14.95;4.90;;;15.70;99.90;;;;;;5057902;28;20036;-74
2023/05/11 09:35:49;;;;;;;11.68;4.97;;;15.80;99.90;;;;;;5059690;28;20020;-74
2023/05/11 09:38:15;;;;;;;7.88;5.18;;;16.00;99.90;;;;;;5074130;28;20495;-75
2023/05/11 09:40:54;;;;;;;10.18;4.63;;;16.20;99.90;;;;;;5071603;28;20043;-74
2023/05/11 09:43:26;;;;;;;12.20;5.80;;;16.40;99.90;;;;;;5061503;28;20039;-74
2023/05/11 09:45:54;;;;;;;9.35;5.97;;;16.60;99.90;;;;;;5058641;28;20036;-75
2023/05/11 09:48:20;;;;;;;12.35;5.38;;;16.80;99.90;;;;;;5081863;28;20027;-75
2023/05/11 09:50:50;;;;;;;15.43;6.15;;;17.10;99.90;;;;;;5088875;28;20028;-74
2023/05/11 09:53:16;;;;;;;15.13;6.43;;;17.20;99.90;;;;;;5091685;28;20028;-74
2023/05/11 09:55:54;;;;;;;10.85;6.45;;;17.10;99.90;;;;;;5093577;28;20067;-74
2023/05/11 09:58:20;;;;;;;9.45;5.07;;;17.00;99.90;;;;;;5080426;28;20047;-74
2023/05/11 10:00:50;;;;;;;9.50;5.93;;;17.10;99.90;;;;;;5076062;28;20035;-75
2023/05/11 10:03:16;;;;;;;8.93;5.43;;;17.30;99.90;;;;;;5078047;28;20043;-74
2023/05/11 10:05:55;;;;;;;13.88;6.40;;;17.50;99.90;;;;;;5077462;28;20042;-74
2023/05/11 10:08:27;;;;;;;13.68;5.80;;;17.80;99.90;;;;;;5095714;28;20024;-74
2023/05/11 10:10:53;;;;;;;13.25;5.68;;;18.10;99.90;;;;;;5076504;28;20020;-74
2023/05/11 10:13:19;;;;;;;9.05;4.78;;;18.30;99.90;;;;;;5076468;28;20032;-74
2023/05/11 10:15:46;;;;;;;14.57;6.05;;;18.70;99.90;;;;;;5059890;28;20036;-75
2023/05/11 10:18:12;;;;;;;8.95;4.95;;;19.00;99.90;;;;;;5076325;28;20036;-74
2023/05/11 10:20:38;;;;;;;12.45;6.25;;;19.10;99.90;;;;;;5051205;28;20032;-74
2023/05/11 10:23:04;;;;;;;12.70;5.72;;;19.00;99.90;;;;;;5094742;28;20128;-74
2023/05/11 10:25:30;;;;;;;9.30;5.40;;;18.80;99.90;;;;;;5077204;28;20032;-74
2023/05/11 10:27:56;;;;;;;9.95;4.68;;;18.70;99.90;;;;;;5060658;28;20484;-74
2023/05/11 10:30:22;;;;;;;8.95;5.53;;;18.50;99.90;;;;;;5070307;28;20032;-74
2023/05/11 10:32:49;;;;;;;10.63;4.88;;;18.40;99.90;;;;;;5077216;28;20027;-74
2023/05/11 10:35:15;;;;;;;8.77;4.90;;;18.30;99.90;;;;;;5072214;28;20033;-74
2023/05/11 10:37:42;;;;;;;10.30;5.50;;;18.20;99.90;;;;;;5076480;28;20024;-74
2023/05/11 10:40:09;;;;;;;7.07;4.70;;;18.10;99.90;;;;;;5094554;28;20046;-74
2023/05/11 10:42:44;;;;;;;9.70;5.45;;;18.10;99.90;;;;;;5056852;28;20051;-74
2023/05/11 10:45:25;;;;;;;7.93;5.20;;;18.00;99.90;;;;;;5092420;28;20044;-74
2023/05/11 10:48:01;;;;;;;9.68;5.72;;;17.80;99.90;;;;;;5057177;28;20025;-74
2023/05/11 10:50:38;;;;;;;13.30;5.95;;;17.60;99.90;;;;;;5088216;28;20039;-74
2023/05/11 10:53:26;;;;;;;8.57;5.20;;;17.70;99.90;;;;;;5043596;28;20468;-74
2023/05/11 10:56:23;;;;;;;11.32;5.32;;;17.80;99.90;;;;;;5090511;28;20358;-74
2023/05/11 10:59:20;;;;;;;7.57;5.32;;;17.90;99.90;;;;;;5093403;28;20044;-74
2023/05/11 11:01:47;;;;;;;9.00;4.78;;;17.60;99.90;;;;;;5091521;28;20036;-75
2023/05/11 11:04:13;;;;;;;8.52;6.05;;;17.60;99.90;;;;;;5072106;28;20036;-73
2023/05/11 11:06:41;;;;;;;7.50;4.93;;;17.60;99.90;;;;;;5082428;28;20134;-73
2023/05/11 11:09:14;;;;;;;6.25;4.68;;;17.50;99.90;;;;;;5058870;28;20039;-74
2023/05/11 11:11:45;;;;;;;7.57;5.13;;;17.30;99.90;;;;;;5075229;28;20025;-74
2023/05/11 11:14:12;;;;;;;8.23;5.20;;;17.20;99.90;;;;;;5051866;28;20467;-74
2023/05/11 11:16:39;;;;;;;5.50;5.00;;;17.40;99.90;;;;;;5079956;28;20039;-74
2023/05/11 11:19:30;;;;;;;7.82;4.65;;;17.60;99.90;;;;;;5042521;28;20043;-73
2023/05/11 11:21:56;;;;;;;9.80;5.22;;;17.80;99.90;;;;;;5091965;28;20041;-74
2023/05/11 11:24:37;;;;;;;9.43;5.30;;;17.90;99.90;;;;;;5093526;28;20048;-74
2023/05/11 11:27:07;;;;;;;;;;;18.10;99.90;;;;;;5076341;28;20040;-73
2023/05/11 11:29:34;;;;;;;8.07;4.85;;;18.00;99.90;;;;;;5076108;28;20276;-73
2023/05/11 11:32:18;;;;;;;8.90;4.88;;;18.00;99.90;;;;;;5048150;28;20047;-74
2023/05/11 11:34:45;;;;;;;6.60;5.53;;;18.20;99.90;;;;;;5092809;28;20032;-74
2023/05/11 11:37:12;;;;;;;9.13;7.15;;;18.40;99.90;;;;;;5078531;28;20043;-73
2023/05/11 11:39:41;;;;;;;7.00;6.30;;;18.30;99.90;;;;;;5059114;28;20469;-74
2023/05/11 11:42:33;;;;;;;8.52;6.38;;;18.10;99.90;;;;;;5096002;28;20357;-73
2023/05/11 11:45:25;;;;;;;7.97;6.22;;;18.00;99.90;;;;;;5075060;28;20048;-74
2023/05/11 11:48:29;;;;;;;8.40;6.20;;;18.30;99.90;;;;;;5092722;28;20036;-74
2023/05/11 11:51:09;;;;;;;10.63;6.55;;;18.50;99.90;;;;;;5082861;28;20481;-73
2023/05/11 11:53:35;;;;;;;8.57;5.75;;;18.70;99.90;;;;;;5080474;28;20031;-73
2023/05/11 11:56:06;;;;;;;7.63;5.47;;;19.00;99.90;;;;;;5087665;28;20040;-73
2023/05/11 11:58:42;;;;;;;7.88;5.10;;;19.20;99.90;;;;;;5075534;28;20475;-73
2023/05/11 12:01:09;;;;;;;10.05;5.05;;;19.20;99.90;;;;;;5092811;28;20028;-73
2023/05/11 12:03:35;;;;;;;9.80;5.25;;;18.90;99.90;;;;;;5093569;28;20035;-72
2023/05/11 12:06:01;;;;;;;14.93;5.32;;;18.60;99.90;;;;;;5070416;28;20035;-73
2023/05/11 12:08:30;;;;;;;9.20;5.10;;;18.30;99.90;;;;;;5070890;28;20032;-73
2023/05/11 12:11:00;;;;;;;7.10;5.57;;;18.20;99.90;;;;;;5075231;28;20376;-73
2023/05/11 12:13:26;;;;;;;9.77;6.07;;;18.30;99.90;;;;;;5075621;28;20035;-72
2023/05/11 12:16:11;;;;;;;7.10;5.82;;;18.30;99.90;;;;;;5066459;28;20397;-73
2023/05/11 12:18:38;;;;;;;7.07;5.15;;;18.20;99.90;;;;;;5068250;28;20031;-73
2023/05/11 12:21:04;;;;;;;11.43;6.47;;;18.20;99.90;;;;;;5070151;28;20586;-73
2023/05/11 12:23:30;;;;;;;6.68;5.13;;;18.10;99.90;;;;;;5057918;28;20040;-73
2023/05/11 12:26:03;;;;;;;7.30;6.03;;;17.90;99.90;;;;;;5074006;28;20404;-73
2023/05/11 12:28:29;;;;;;;6.32;5.13;;;17.80;99.90;;;;;;5074939;28;20039;-73
2023/05/11 12:30:55;;;;;;;10.18;6.18;;;17.90;99.90;;;;;;5074159;28;20036;-73
2023/05/11 12:33:22;;;;;;;8.02;5.82;;;18.20;99.90;;;;;;5074788;28;20054;-73
2023/05/11 12:35:52;;;;;;;8.68;5.93;;;18.40;99.90;;;;;;5059745;28;20032;-73
2023/05/11 12:38:18;;;;;;;8.07;5.28;;;18.60;99.90;;;;;;5073944;28;20028;-73
2023/05/11 12:40:51;;;;;;;6.30;5.70;;;18.80;99.90;;;;;;5074877;28;20094;-73
2023/05/11 12:43:21;;;;;;;7.88;5.85;;;18.80;99.90;;;;;;5058331;28;20031;-73
2023/05/11 12:45:47;;;;;;;7.53;6.47;;;19.00;99.90;;;;;;5049646;28;20040;-73
2023/05/11 12:48:13;;;;;;;8.60;5.97;;;19.10;99.90;;;;;;5061005;28;20040;-73
2023/05/11 12:50:43;;;;;;;6.18;5.57;;;19.30;99.90;;;;;;5072906;28;20036;-73
2023/05/11 12:53:17;;;;;;;10.73;5.97;;;19.40;99.90;;;;;;5073774;28;20031;-73